sensor_id;sensor_type;location;lat;lon;timestamp;pressure;altitude;pressure_sealevel;temperature;humidity
46199;BME280;31928;52.104;10.030;2023-04-01T00:01:09;98492.75;;;14.76;52.96
46199;BME280;31928;52.104;10.030;2023-04-01T00:03:36;98495.47;;;14.76;53.56
46199;BME280;31928;52.104;10.030;2023-04-01T00:06:03;98493.25;;;14.78;52.98
46199;BME280;31928;52.104;10.030;2023-04-01T00:08:30;98484.88;;;14.80;52.97
46199;BME280;31928;52.104;10.030;2023-04-01T00:10:56;98491.09;;;14.80;52.96
46199;BME280;31928;52.104;10.030;2023-04-01T00:13:24;98493.81;;;14.80;52.99
46199;BME280;31928;52.104;10.030;2023-04-01T00:15:52;98494.31;;;14.82;53.23
46199;BME280;31928;52.104;10.030;2023-04-01T00:18:20;98491.59;;;14.82;53.27
46199;BME280;31928;52.104;10.030;2023-04-01T00:20:47;98497.00;;;14.82;53.10
46199;BME280;31928;52.104;10.030;2023-04-01T00:23:14;98493.22;;;14.83;52.95
46199;BME280;31928;52.104;10.030;2023-04-01T00:25:41;98492.44;;;14.83;53.12
46199;BME280;31928;52.104;10.030;2023-04-01T00:28:08;98501.31;;;14.83;53.14
46199;BME280;31928;52.104;10.030;2023-04-01T00:30:35;98486.75;;;14.84;52.80
46199;BME280;31928;52.104;10.030;2023-04-01T00:33:02;98501.03;;;14.85;53.11
46199;BME280;31928;52.104;10.030;2023-04-01T00:35:28;98492.13;;;14.84;53.01
46199;BME280;31928;52.104;10.030;2023-04-01T00:37:56;98488.34;;;14.85;52.65
46199;BME280;31928;52.104;10.030;2023-04-01T00:40:33;98497.53;;;14.84;52.69
46199;BME280;31928;52.104;10.030;2023-04-01T00:43:01;98487.53;;;14.85;52.80
46199;BME280;31928;52.104;10.030;2023-04-01T00:47:54;98483.75;;;14.86;52.68
46199;BME280;31928;52.104;10.030;2023-04-01T00:50:22;98489.94;;;14.86;52.68
46199;BME280;31928;52.104;10.030;2023-04-01T00:52:50;98486.75;;;14.84;52.53
46199;BME280;31928;52.104;10.030;2023-04-01T00:55:18;98486.75;;;14.84;52.67
46199;BME280;31928;52.104;10.030;2023-04-01T00:57:45;98488.66;;;14.84;52.77
46199;BME280;31928;52.104;10.030;2023-04-01T01:00:12;98487.53;;;14.85;52.54
46199;BME280;31928;52.104;10.030;2023-04-01T01:02:43;98494.25;;;14.87;52.68
46199;BME280;31928;52.104;10.030;2023-04-01T01:05:14;98486.75;;;14.84;52.53
46199;BME280;31928;52.104;10.030;2023-04-01T01:07:46;98492.13;;;14.84;52.61
46199;BME280;31928;52.104;10.030;2023-04-01T01:10:20;98499.94;;;14.86;52.73
46199;BME280;31928;52.104;10.030;2023-04-01T01:15:37;98488.13;;;14.82;52.71
46199;BME280;31928;52.104;10.030;2023-04-01T01:23:07;98498.09;;;14.81;52.42
46199;BME280;31928;52.104;10.030;2023-04-01T01:33:41;98485.75;;;14.75;53.00
46199;BME280;31928;52.104;10.030;2023-04-01T01:36:10;98489.25;;;14.76;52.71
46199;BME280;31928;52.104;10.030;2023-04-01T01:38:39;98489.53;;;14.74;52.91
46199;BME280;31928;52.104;10.030;2023-04-01T01:41:06;98482.53;;;14.73;52.71
46199;BME280;31928;52.104;10.030;2023-04-01T01:43:35;98488.50;;;14.70;52.78
46199;BME280;31928;52.104;10.030;2023-04-01T01:46:05;98478.00;;;14.69;53.29
46199;BME280;31928;52.104;10.030;2023-04-01T01:48:33;98488.78;;;14.69;52.96
46199;BME280;31928;52.104;10.030;2023-04-01T01:51:00;98487.16;;;14.68;52.82
46199;BME280;31928;52.104;10.030;2023-04-01T01:53:27;98479.66;;;14.65;53.30
46199;BME280;31928;52.104;10.030;2023-04-01T01:55:54;98493.44;;;14.63;53.18
46199;BME280;31928;52.104;10.030;2023-04-01T01:58:25;98494.50;;;14.62;52.90
46199;BME280;31928;52.104;10.030;2023-04-01T02:00:55;98492.91;;;14.61;53.62
46199;BME280;31928;52.104;10.030;2023-04-01T02:03:23;98495.09;;;14.59;53.31
46199;BME280;31928;52.104;10.030;2023-04-01T02:05:52;98495.88;;;14.60;53.23
46199;BME280;31928;52.104;10.030;2023-04-01T02:08:23;98491.56;;;14.59;53.04
46199;BME280;31928;52.104;10.030;2023-04-01T02:10:56;98500.47;;;14.59;53.06
46199;BME280;31928;52.104;10.030;2023-04-01T02:13:58;98493.47;;;14.58;53.15
46199;BME280;31928;52.104;10.030;2023-04-01T02:16:20;98491.06;;;14.57;53.23
46199;BME280;31928;52.104;10.030;2023-04-01T02:18:50;98491.84;;;14.57;53.03
46199;BME280;31928;52.104;10.030;2023-04-01T02:21:20;98485.38;;;14.58;53.08
46199;BME280;31928;52.104;10.030;2023-04-01T02:23:47;98491.84;;;14.57;53.41
46199;BME280;31928;52.104;10.030;2023-04-01T02:26:15;98493.22;;;14.55;54.11
46199;BME280;31928;52.104;10.030;2023-04-01T02:28:42;98484.06;;;14.56;53.32
46199;BME280;31928;52.104;10.030;2023-04-01T02:31:10;98490.25;;;14.56;53.46
46199;BME280;31928;52.104;10.030;2023-04-01T02:33:37;98495.63;;;14.56;53.55
46199;BME280;31928;52.104;10.030;2023-04-01T02:36:05;98496.75;;;14.55;53.46
46199;BME280;31928;52.104;10.030;2023-04-01T02:38:31;98495.63;;;14.56;53.25
46199;BME280;31928;52.104;10.030;2023-04-01T02:41:01;98495.63;;;14.56;53.49
46199;BME280;31928;52.104;10.030;2023-04-01T02:43:28;98499.94;;;14.57;53.38
46199;BME280;31928;52.104;10.030;2023-04-01T02:45:55;98500.22;;;14.56;53.66
46199;BME280;31928;52.104;10.030;2023-04-01T02:48:21;98505.63;;;14.56;53.25
46199;BME280;31928;52.104;10.030;2023-04-01T02:50:48;98496.47;;;14.57;53.43
46199;BME280;31928;52.104;10.030;2023-04-01T02:53:15;98496.75;;;14.55;53.58
46199;BME280;31928;52.104;10.030;2023-04-01T02:55:41;98499.94;;;14.57;53.20
46199;BME280;31928;52.104;10.030;2023-04-01T02:58:08;98501.84;;;14.57;53.39
46199;BME280;31928;52.104;10.030;2023-04-01T03:00:34;98508.03;;;14.57;53.61
46199;BME280;31928;52.104;10.030;2023-04-01T03:03:01;98504.25;;;14.58;52.99
46199;BME280;31928;52.104;10.030;2023-04-01T03:05:29;98512.63;;;14.57;53.52
46199;BME280;31928;52.104;10.030;2023-04-01T03:07:55;98508.03;;;14.57;53.29
46199;BME280;31928;52.104;10.030;2023-04-01T03:10:22;98501.03;;;14.56;53.16
46199;BME280;31928;52.104;10.030;2023-04-01T03:12:48;98498.31;;;14.56;53.29
46199;BME280;31928;52.104;10.030;2023-04-01T03:15:15;98511.81;;;14.56;53.28
46199;BME280;31928;52.104;10.030;2023-04-01T03:17:42;98517.19;;;14.56;53.36
46199;BME280;31928;52.104;10.030;2023-04-01T03:20:09;98506.41;;;14.56;53.17
46199;BME280;31928;52.104;10.030;2023-04-01T03:22:37;98512.63;;;14.57;53.38
46199;BME280;31928;52.104;10.030;2023-04-01T03:25:08;98511.81;;;14.56;53.17
46199;BME280;31928;52.104;10.030;2023-04-01T03:27:34;98508.31;;;14.56;53.46
46199;BME280;31928;52.104;10.030;2023-04-01T03:30:02;98510.22;;;14.55;53.61
46199;BME280;31928;52.104;10.030;2023-04-01T03:32:29;98502.13;;;14.55;53.41
46199;BME280;31928;52.104;10.030;2023-04-01T03:34:55;98506.41;;;14.56;53.27
46199;BME280;31928;52.104;10.030;2023-04-01T03:37:22;98510.22;;;14.55;53.19
46199;BME280;31928;52.104;10.030;2023-04-01T03:39:49;98512.09;;;14.55;53.82
46199;BME280;31928;52.104;10.030;2023-04-01T03:42:15;98515.63;;;14.55;53.68
46199;BME280;31928;52.104;10.030;2023-04-01T03:44:42;98508.63;;;14.54;53.66
46199;BME280;31928;52.104;10.030;2023-04-01T03:47:09;98515.63;;;14.55;53.43
46199;BME280;31928;52.104;10.030;2023-04-01T03:49:35;98520.19;;;14.55;53.45
46199;BME280;31928;52.104;10.030;2023-04-01T03:52:02;98517.78;;;14.53;53.16
46199;BME280;31928;52.104;10.030;2023-04-01T03:54:28;98518.06;;;14.52;53.65
46199;BME280;31928;52.104;10.030;2023-04-01T03:56:55;98522.63;;;14.51;53.61
46199;BME280;31928;52.104;10.030;2023-04-01T03:59:24;98523.75;;;14.50;53.11
46199;BME280;31928;52.104;10.030;2023-04-01T04:01:50;98527.53;;;14.49;53.58
46199;BME280;31928;52.104;10.030;2023-04-01T04:04:17;98522.72;;;14.46;53.74
46199;BME280;31928;52.104;10.030;2023-04-01T04:06:44;98518.38;;;14.45;53.81
46199;BME280;31928;52.104;10.030;2023-04-01T04:09:10;98514.06;;;14.44;53.66
46199;BME280;31928;52.104;10.030;2023-04-01T04:11:37;98524.88;;;14.44;53.60
46199;BME280;31928;52.104;10.030;2023-04-01T04:14:03;98524.63;;;14.41;53.99
46199;BME280;31928;52.104;10.030;2023-04-01T04:16:30;98522.78;;;14.37;54.79
46199;BME280;31928;52.104;10.030;2023-04-01T04:18:57;98522.75;;;14.42;53.44
46199;BME280;31928;52.104;10.030;2023-04-01T04:21:23;98523.28;;;14.39;53.89
46199;BME280;31928;52.104;10.030;2023-04-01T04:23:50;98532.19;;;14.39;53.50
46199;BME280;31928;52.104;10.030;2023-04-01T04:26:17;98529.78;;;14.38;53.85
46199;BME280;31928;52.104;10.030;2023-04-01T04:28:44;98524.94;;;14.35;54.30
46199;BME280;31928;52.104;10.030;2023-04-01T04:31:11;98528.75;;;14.34;54.37
46199;BME280;31928;52.104;10.030;2023-04-01T04:33:38;98530.31;;;14.35;53.75
46199;BME280;31928;52.104;10.030;2023-04-01T04:36:04;98527.13;;;14.33;54.14
46199;BME280;31928;52.104;10.030;2023-04-01T04:38:31;98537.09;;;14.32;54.15
46199;BME280;31928;52.104;10.030;2023-04-01T04:40:58;98537.38;;;14.31;53.78
46199;BME280;31928;52.104;10.030;2023-04-01T04:43:24;98536.28;;;14.32;53.76
46199;BME280;31928;52.104;10.030;2023-04-01T04:45:51;98541.13;;;14.30;53.68
46199;BME280;31928;52.104;10.030;2023-04-01T04:48:18;98544.94;;;14.29;53.81
46199;BME280;31928;52.104;10.030;2023-04-01T04:50:48;98544.94;;;14.29;54.21
46199;BME280;31928;52.104;10.030;2023-04-01T04:53:16;98546.03;;;14.28;54.12
46199;BME280;31928;52.104;10.030;2023-04-01T04:55:47;98542.78;;;14.26;54.02
46199;BME280;31928;52.104;10.030;2023-04-01T04:58:14;98555.75;;;14.24;54.12
46199;BME280;31928;52.104;10.030;2023-04-01T05:00:41;98541.19;;;14.25;53.61
46199;BME280;31928;52.104;10.030;2023-04-01T05:03:08;98552.00;;;14.25;54.06
46199;BME280;31928;52.104;10.030;2023-04-01T05:05:35;98550.38;;;14.24;53.84
46199;BME280;31928;52.104;10.030;2023-04-01T05:08:02;98559.53;;;14.23;53.87
46199;BME280;31928;52.104;10.030;2023-04-01T05:10:29;98554.44;;;14.21;53.93
46199;BME280;31928;52.104;10.030;2023-04-01T05:12:55;98552.53;;;14.22;53.98
46199;BME280;31928;52.104;10.030;2023-04-01T05:15:22;98560.09;;;14.20;54.05
46199;BME280;31928;52.104;10.030;2023-04-01T05:17:49;98563.88;;;14.19;53.74
46199;BME280;31928;52.104;10.030;2023-04-01T05:20:15;98553.09;;;14.19;53.94
46199;BME280;31928;52.104;10.030;2023-04-01T05:22:42;98562.78;;;14.20;53.69
46199;BME280;31928;52.104;10.030;2023-04-01T05:25:09;98563.88;;;14.19;53.92
46199;BME280;31928;52.104;10.030;2023-04-01T05:27:35;98566.03;;;14.17;54.47
46199;BME280;31928;52.104;10.030;2023-04-01T05:30:02;98566.56;;;14.19;53.94
46199;BME280;31928;52.104;10.030;2023-04-01T05:32:30;98566.56;;;14.19;54.23
46199;BME280;31928;52.104;10.030;2023-04-01T05:34:57;98562.25;;;14.18;54.17
46199;BME280;31928;52.104;10.030;2023-04-01T05:37:23;98567.66;;;14.18;54.36
46199;BME280;31928;52.104;10.030;2023-04-01T05:39:50;98562.25;;;14.18;54.49
46199;BME280;31928;52.104;10.030;2023-04-01T05:42:17;98561.47;;;14.17;54.20
46199;BME280;31928;52.104;10.030;2023-04-01T05:44:43;98567.66;;;14.18;54.21
46199;BME280;31928;52.104;10.030;2023-04-01T05:47:10;98572.25;;;14.17;54.59
46199;BME280;31928;52.104;10.030;2023-04-01T05:49:36;98566.03;;;14.17;54.42
46199;BME280;31928;52.104;10.030;2023-04-01T05:52:03;98581.13;;;14.18;54.32
46199;BME280;31928;52.104;10.030;2023-04-01T05:54:29;98561.47;;;14.17;54.52
46199;BME280;31928;52.104;10.030;2023-04-01T05:56:56;98566.56;;;14.19;54.18
46199;BME280;31928;52.104;10.030;2023-04-01T05:59:23;98569.25;;;14.19;55.01
46199;BME280;31928;52.104;10.030;2023-04-01T06:01:49;98563.88;;;14.19;54.68
46199;BME280;31928;52.104;10.030;2023-04-01T06:04:16;98570.59;;;14.21;54.12
46199;BME280;31928;52.104;10.030;2023-04-01T06:06:44;98572.22;;;14.22;54.65
46199;BME280;31928;52.104;10.030;2023-04-01T06:09:12;98570.31;;;14.23;54.37
46199;BME280;31928;52.104;10.030;2023-04-01T06:16:51;98575.66;;;14.28;54.16
46199;BME280;31928;52.104;10.030;2023-04-01T06:19:23;98571.63;;;14.30;54.16
46199;BME280;31928;52.104;10.030;2023-04-01T06:24:50;98589.63;;;14.35;54.53
46199;BME280;31928;52.104;10.030;2023-04-01T06:30:03;98586.41;;;14.38;54.31
46199;BME280;31928;52.104;10.030;2023-04-01T06:38:01;98588.50;;;14.45;54.37
46199;BME280;31928;52.104;10.030;2023-04-01T06:40:53;98594.38;;;14.47;54.08
46199;BME280;31928;52.104;10.030;2023-04-01T06:51:29;98601.09;;;14.55;54.01
46199;BME280;31928;52.104;10.030;2023-04-01T06:54:01;98598.09;;;14.56;54.34
46199;BME280;31928;52.104;10.030;2023-04-01T06:56:30;98604.53;;;14.60;53.81
46199;BME280;31928;52.104;10.030;2023-04-01T06:58:58;98602.94;;;14.59;54.28
46199;BME280;31928;52.104;10.030;2023-04-01T07:01:31;98595.38;;;14.61;54.26
46199;BME280;31928;52.104;10.030;2023-04-01T07:04:05;98609.13;;;14.60;54.13
46199;BME280;31928;52.104;10.030;2023-04-01T07:06:36;98598.06;;;14.61;54.32
46199;BME280;31928;52.104;10.030;2023-04-01T07:09:12;98608.84;;;14.61;54.22
46199;BME280;31928;52.104;10.030;2023-04-01T07:11:39;98609.41;;;14.63;54.11
46199;BME280;31928;52.104;10.030;2023-04-01T07:16:37;98613.69;;;14.64;53.76
46199;BME280;31928;52.104;10.030;2023-04-01T07:19:08;98609.41;;;14.63;54.02
46199;BME280;31928;52.104;10.030;2023-04-01T07:21:45;98616.38;;;14.64;54.04
46199;BME280;31928;52.104;10.030;2023-04-01T07:24:15;98621.25;;;14.62;54.35
46199;BME280;31928;52.104;10.030;2023-04-01T07:26:44;98624.47;;;14.64;54.29
46199;BME280;31928;52.104;10.030;2023-04-01T07:29:12;98625.56;;;14.63;54.79
46199;BME280;31928;52.104;10.030;2023-04-01T07:34:50;98633.84;;;14.72;55.36
46199;BME280;31928;52.104;10.030;2023-04-01T07:37:22;98636.81;;;14.75;54.93
46199;BME280;31928;52.104;10.030;2023-04-01T07:40:01;98630.56;;;14.80;54.85
46199;BME280;31928;52.104;10.030;2023-04-01T07:50:26;98643.09;;;14.99;54.75
46199;BME280;31928;52.104;10.030;2023-04-01T07:53:15;98643.03;;;15.04;54.74
46199;BME280;31928;52.104;10.030;2023-04-01T07:58:32;98654.03;;;15.12;54.37
46199;BME280;31928;52.104;10.030;2023-04-01T08:01:10;98652.97;;;15.13;54.30
46199;BME280;31928;52.104;10.030;2023-04-01T08:09:16;98657.47;;;15.23;53.80
46199;BME280;31928;52.104;10.030;2023-04-01T08:12:08;98663.13;;;15.26;53.73
46199;BME280;31928;52.104;10.030;2023-04-01T08:14:41;98663.91;;;15.27;54.17
46199;BME280;31928;52.104;10.030;2023-04-01T08:22:13;98674.63;;;15.37;54.00
46199;BME280;31928;52.104;10.030;2023-04-01T08:24:42;98669.75;;;15.39;53.87
46199;BME280;31928;52.104;10.030;2023-04-01T08:27:18;98674.31;;;15.43;53.79
46199;BME280;31928;52.104;10.030;2023-04-01T08:29:53;98664.81;;;15.46;53.50
46199;BME280;31928;52.104;10.030;2023-04-01T08:32:25;98669.66;;;15.49;53.60
46199;BME280;31928;52.104;10.030;2023-04-01T08:35:14;98667.47;;;15.51;53.76
46199;BME280;31928;52.104;10.030;2023-04-01T08:37:43;98691.22;;;15.54;53.39
46199;BME280;31928;52.104;10.030;2023-04-01T08:40:30;98683.84;;;15.59;53.22
46199;BME280;31928;52.104;10.030;2023-04-01T08:48:51;98680.25;;;15.68;53.19
46199;BME280;31928;52.104;10.030;2023-04-01T08:58:59;98694.97;;;15.81;52.99
46199;BME280;31928;52.104;10.030;2023-04-01T09:04:25;98707.09;;;15.83;52.77
46199;BME280;31928;52.104;10.030;2023-04-01T09:07:07;98697.34;;;15.87;52.96
46199;BME280;31928;52.104;10.030;2023-04-01T09:38:00;98720.28;;;16.13;52.43
46199;BME280;31928;52.104;10.030;2023-04-01T09:43:25;98723.22;;;16.17;52.50
46199;BME280;31928;52.104;10.030;2023-04-01T09:46:04;98720.22;;;16.18;52.47
46199;BME280;31928;52.104;10.030;2023-04-01T09:54:01;98734.78;;;16.22;52.32
46199;BME280;31928;52.104;10.030;2023-04-01T10:01:34;98739.69;;;16.20;51.92
46199;BME280;31928;52.104;10.030;2023-04-01T10:06:51;98739.69;;;16.20;52.09
46199;BME280;31928;52.104;10.030;2023-04-01T22:05:15;99888.47;;;10.43;53.85
46199;BME280;31928;52.104;10.030;2023-04-01T22:08:08;99889.13;;;10.38;53.88
46199;BME280;31928;52.104;10.030;2023-04-01T22:18:31;99912.09;;;10.28;53.78
46199;BME280;31928;52.104;10.030;2023-04-01T22:28:46;99929.34;;;10.14;53.88
46199;BME280;31928;52.104;10.030;2023-04-01T22:31:18;99931.66;;;10.11;54.17
46199;BME280;31928;52.104;10.030;2023-04-01T22:41:30;99959.38;;;9.98;53.81
46199;BME280;31928;52.104;10.030;2023-04-01T22:44:00;99958.13;;;9.94;53.81
46199;BME280;31928;52.104;10.030;2023-04-01T22:46:38;99962.88;;;9.92;53.96
46199;BME280;31928;52.104;10.030;2023-04-01T22:54:12;99978.63;;;9.82;53.88
46199;BME280;31928;52.104;10.030;2023-04-01T22:57:02;99976.38;;;9.79;53.85
46199;BME280;31928;52.104;10.030;2023-04-01T22:59:43;99981.34;;;9.76;54.07
46199;BME280;31928;52.104;10.030;2023-04-01T23:02:13;99987.97;;;9.73;53.79
46199;BME280;31928;52.104;10.030;2023-04-01T23:04:42;99988.38;;;9.70;53.89
46199;BME280;31928;52.104;10.030;2023-04-01T23:07:30;99999.53;;;9.67;53.99
46199;BME280;31928;52.104;10.030;2023-04-01T23:09:59;100000.78;;;9.65;54.20
46199;BME280;31928;52.104;10.030;2023-04-01T23:12:27;99998.53;;;9.62;54.30
46199;BME280;31928;52.104;10.030;2023-04-01T23:14:58;100004.09;;;9.60;54.33
46199;BME280;31928;52.104;10.030;2023-04-01T23:22:21;100018.34;;;9.55;54.23
46199;BME280;31928;52.104;10.030;2023-04-01T23:27:22;100023.50;;;9.50;54.06
46199;BME280;31928;52.104;10.030;2023-04-01T23:29:51;100027.41;;;9.47;54.23
46199;BME280;31928;52.104;10.030;2023-04-01T23:32:19;100042.66;;;9.47;54.30
46199;BME280;31928;52.104;10.030;2023-04-01T23:34:49;100040.41;;;9.44;54.15
46199;BME280;31928;52.104;10.030;2023-04-01T23:37:17;100053.19;;;9.42;54.09
46199;BME280;31928;52.104;10.030;2023-04-01T23:39:46;100062.69;;;9.38;54.18
46199;BME280;31928;52.104;10.030;2023-04-01T23:42:27;100059.38;;;9.36;54.17
46199;BME280;31928;52.104;10.030;2023-04-01T23:44:55;100067.84;;;9.33;53.89
46199;BME280;31928;52.104;10.030;2023-04-01T23:47:24;100073.41;;;9.31;53.95
46199;BME280;31928;52.104;10.030;2023-04-01T23:49:53;100073.00;;;9.28;54.11
46199;BME280;31928;52.104;10.030;2023-04-01T23:52:25;100086.59;;;9.26;53.97
46199;BME280;31928;52.104;10.030;2023-04-01T23:54:57;100093.16;;;9.24;54.19
46199;BME280;31928;52.104;10.030;2023-04-01T23:57:30;100093.38;;;9.22;54.48
